createdAt,value
2019-03-19T00:00:19.130Z,1006.4
2019-03-19T00:01:19.145Z,1006.43
2019-03-19T00:02:19.158Z,1006.41
2019-03-19T00:03:19.176Z,1006.46
2019-03-19T00:04:19.192Z,1006.48
2019-03-19T00:05:19.208Z,1006.52
2019-03-19T00:06:19.226Z,1006.55
2019-03-19T00:07:19.243Z,1006.57
2019-03-19T00:08:19.260Z,1006.59
2019-03-19T00:09:19.276Z,1006.58
2019-03-19T00:10:19.291Z,1006.61
2019-03-19T00:11:19.312Z,1006.59
2019-03-19T00:12:19.326Z,1006.6
2019-03-19T00:13:19.343Z,1006.57
2019-03-19T00:14:19.359Z,1006.53
2019-03-19T00:15:19.375Z,1006.52
2019-03-19T00:16:19.394Z,1006.53
2019-03-19T00:17:19.410Z,1006.53
2019-03-19T00:18:19.427Z,1006.57
2019-03-19T00:19:19.444Z,1006.58
2019-03-19T00:20:19.460Z,1006.58
2019-03-19T00:21:19.477Z,1006.6
2019-03-19T00:22:19.494Z,1006.64
2019-03-19T00:23:19.510Z,1006.6
2019-03-19T00:24:19.528Z,1006.63
2019-03-19T00:25:29.291Z,1006.65
2019-03-19T00:26:19.562Z,1006.7
2019-03-19T00:27:19.577Z,1006.68
2019-03-19T00:28:19.593Z,1006.69
2019-03-19T00:29:19.611Z,1006.73
2019-03-19T00:30:19.628Z,1006.74
2019-03-19T00:31:19.645Z,1006.73
2019-03-19T00:32:19.664Z,1006.73
2019-03-19T00:33:19.678Z,1006.73
2019-03-19T00:34:19.694Z,1006.71
2019-03-19T00:35:19.711Z,1006.75
2019-03-19T00:36:19.727Z,1006.77
2019-03-19T00:37:19.745Z,1006.73
2019-03-19T00:38:19.760Z,1006.8
2019-03-19T00:39:19.778Z,1006.78
2019-03-19T00:40:19.796Z,1006.77
2019-03-19T00:41:19.815Z,1006.78
2019-03-19T00:42:19.827Z,1006.79
2019-03-19T00:43:19.844Z,1006.75
2019-03-19T00:44:19.860Z,1006.75
2019-03-19T00:45:19.877Z,1006.79
2019-03-19T00:46:19.894Z,1006.82
2019-03-19T00:47:19.910Z,1006.84
2019-03-19T00:48:19.927Z,1006.88
2019-03-19T00:49:19.942Z,1006.92
2019-03-19T00:50:19.976Z,1006.9
2019-03-19T00:51:19.977Z,1006.95
2019-03-19T00:52:19.993Z,1006.96
2019-03-19T00:53:20.010Z,1006.97
2019-03-19T00:54:20.027Z,1006.99
2019-03-19T00:55:20.043Z,1006.97
2019-03-19T00:56:20.059Z,1006.99
2019-03-19T00:57:20.078Z,1007.02
2019-03-19T00:58:20.094Z,1007.03
2019-03-19T00:59:20.109Z,1007.03
2019-03-19T01:00:20.125Z,1007.02
2019-03-19T01:01:20.143Z,1007.01
2019-03-19T01:02:20.161Z,1007
2019-03-19T01:03:20.177Z,1007.05
2019-03-19T01:04:20.193Z,1007.04
2019-03-19T01:05:20.212Z,1007.02
2019-03-19T01:06:20.226Z,1006.96
2019-03-19T01:07:20.241Z,1006.95
2019-03-19T01:08:20.258Z,1006.93
2019-03-19T01:09:20.277Z,1006.91
2019-03-19T01:10:20.294Z,1006.91
2019-03-19T01:11:20.307Z,1006.92
2019-03-19T01:12:20.326Z,1006.92
2019-03-19T01:13:20.342Z,1006.98
2019-03-19T01:14:20.358Z,1006.99
2019-03-19T01:15:20.374Z,1007
2019-03-19T01:16:20.392Z,1007.05
2019-03-19T01:17:20.409Z,1007.07
2019-03-19T01:18:20.426Z,1007.1
2019-03-19T01:19:20.441Z,1007.1
2019-03-19T01:20:20.460Z,1007.12
2019-03-19T01:21:20.475Z,1007.16
2019-03-19T01:22:20.490Z,1007.14
2019-03-19T01:23:20.507Z,1007.17
2019-03-19T01:24:20.524Z,1007.15
2019-03-19T01:25:20.540Z,1007.09
2019-03-19T01:26:20.557Z,1007.05
2019-03-19T01:27:20.573Z,1007.03
2019-03-19T01:28:20.590Z,1007.03
2019-03-19T01:29:20.611Z,1007.02
2019-03-19T01:30:20.622Z,1007.09
2019-03-19T01:31:20.638Z,1007.07
2019-03-19T01:32:20.655Z,1007.06
2019-03-19T01:33:20.672Z,1007.07
2019-03-19T01:34:20.688Z,1007.09
2019-03-19T01:35:20.706Z,1007.1
2019-03-19T01:36:20.722Z,1007.09
2019-03-19T01:37:20.738Z,1007.12
2019-03-19T01:38:20.754Z,1007.13
2019-03-19T01:39:20.771Z,1007.14
2019-03-19T01:40:20.787Z,1007.17
2019-03-19T01:41:20.802Z,1007.13
2019-03-19T01:42:20.821Z,1007.15
2019-03-19T01:43:20.838Z,1007.12
2019-03-19T01:44:20.853Z,1007.06
2019-03-19T01:45:20.869Z,1007.02
2019-03-19T01:46:20.886Z,1006.98
2019-03-19T01:47:20.903Z,1006.96
2019-03-19T01:48:20.919Z,1007
2019-03-19T01:49:20.936Z,1006.99
2019-03-19T01:50:20.952Z,1007.04
2019-03-19T01:51:20.967Z,1007.06
2019-03-19T01:52:20.984Z,1007.06
2019-03-19T01:53:21.003Z,1007.11
2019-03-19T01:54:21.017Z,1007.06
2019-03-19T01:55:21.034Z,1007.02
2019-03-19T01:56:21.051Z,1006.96
2019-03-19T01:57:21.067Z,1006.94
2019-03-19T01:58:21.082Z,1006.97
2019-03-19T01:59:21.100Z,1006.96
2019-03-19T02:00:21.117Z,1007.01
2019-03-19T02:01:21.134Z,1006.96
2019-03-19T02:02:21.150Z,1006.99
2019-03-19T02:03:21.166Z,1007.05
2019-03-19T02:04:21.183Z,1007.11
2019-03-19T02:05:21.200Z,1007.17
2019-03-19T02:06:21.215Z,1007.18
2019-03-19T02:07:21.232Z,1007.19
2019-03-19T02:08:21.247Z,1007.17
2019-03-19T02:09:21.264Z,1007.18
2019-03-19T02:10:21.281Z,1007.14
2019-03-19T02:11:21.296Z,1007.18
2019-03-19T02:12:21.314Z,1007.16
2019-03-19T02:13:21.331Z,1007.18
2019-03-19T02:14:21.353Z,1007.2
2019-03-19T02:15:21.363Z,1007.21
2019-03-19T02:16:21.379Z,1007.22
2019-03-19T02:17:21.399Z,1007.24
2019-03-19T02:18:21.411Z,1007.23
2019-03-19T02:19:21.431Z,1007.22
2019-03-19T02:20:21.445Z,1007.21
2019-03-19T02:21:21.460Z,1007.23
2019-03-19T02:22:21.476Z,1007.22
2019-03-19T02:23:21.493Z,1007.17
2019-03-19T02:24:21.511Z,1007.22
2019-03-19T02:25:21.527Z,1007.2
2019-03-19T02:26:21.544Z,1007.23
2019-03-19T02:27:21.562Z,1007.28
2019-03-19T02:28:21.577Z,1007.29
2019-03-19T02:29:21.592Z,1007.34
2019-03-19T02:30:21.618Z,1007.38
2019-03-19T02:31:21.624Z,1007.4
2019-03-19T02:32:21.642Z,1007.47
2019-03-19T02:33:21.658Z,1007.5
2019-03-19T02:34:21.678Z,1007.52
2019-03-19T02:35:21.689Z,1007.55
2019-03-19T02:36:21.704Z,1007.55
2019-03-19T02:37:21.722Z,1007.51
2019-03-19T02:38:21.750Z,1007.48
2019-03-19T02:39:21.756Z,1007.5
2019-03-19T02:40:21.770Z,1007.46
2019-03-19T02:41:21.788Z,1007.46
2019-03-19T02:42:21.803Z,1007.43
2019-03-19T02:43:22.848Z,1007.46
2019-03-19T02:44:21.837Z,1007.46
2019-03-19T02:45:21.853Z,1007.44
2019-03-19T02:46:21.872Z,1007.46
2019-03-19T02:47:21.927Z,1007.5
2019-03-19T02:48:21.901Z,1007.48
2019-03-19T02:49:21.918Z,1007.49
2019-03-19T02:50:21.934Z,1007.49
2019-03-19T02:51:21.949Z,1007.55
2019-03-19T02:52:21.965Z,1007.52
2019-03-19T02:53:21.980Z,1007.55
2019-03-19T02:54:21.997Z,1007.57
2019-03-19T02:55:22.014Z,1007.57
2019-03-19T02:56:32.245Z,1007.58
2019-03-19T02:57:22.052Z,1007.6
2019-03-19T02:58:22.061Z,1007.62
2019-03-19T02:59:22.078Z,1007.63
2019-03-19T03:00:22.098Z,1007.67
2019-03-19T03:01:22.110Z,1007.67
2019-03-19T03:02:22.132Z,1007.72
2019-03-19T03:03:22.143Z,1007.77
2019-03-19T03:04:22.160Z,1007.74
2019-03-19T03:05:22.190Z,1007.78
2019-03-19T03:06:22.191Z,1007.78
2019-03-19T03:07:22.208Z,1007.79
2019-03-19T03:08:22.247Z,1007.78
2019-03-19T03:09:22.254Z,1007.77
2019-03-19T03:10:22.255Z,1007.77
2019-03-19T03:11:22.271Z,1007.81
2019-03-19T03:12:22.288Z,1007.77
2019-03-19T03:13:22.304Z,1007.81
2019-03-19T03:14:22.319Z,1007.79
2019-03-19T03:15:22.340Z,1007.83
2019-03-19T03:16:22.353Z,1007.82
2019-03-19T03:17:22.372Z,1007.81
2019-03-19T03:18:22.389Z,1007.87
2019-03-19T03:19:22.400Z,1007.89
2019-03-19T03:20:22.417Z,1007.9
2019-03-19T03:21:22.437Z,1007.96
2019-03-19T03:22:22.449Z,1007.99
2019-03-19T03:23:22.465Z,1007.95
2019-03-19T03:24:22.482Z,1008
2019-03-19T03:25:22.498Z,1008.01
2019-03-19T03:26:22.513Z,1008
2019-03-19T03:27:22.531Z,1008.01
2019-03-19T03:28:22.546Z,1007.96
2019-03-19T03:29:22.571Z,1007.99
2019-03-19T03:30:22.652Z,1007.95
2019-03-19T03:31:22.597Z,1007.98
2019-03-19T03:32:22.610Z,1007.99
2019-03-19T03:33:22.634Z,1008.01
2019-03-19T03:34:22.651Z,1007.99
2019-03-19T03:35:22.661Z,1008.02
2019-03-19T03:36:22.675Z,1007.99
2019-03-19T03:37:22.693Z,1008.03
2019-03-19T03:38:22.708Z,1008.01
2019-03-19T03:39:22.729Z,1008.06
2019-03-19T03:40:22.754Z,1008.07
2019-03-19T03:41:22.755Z,1008.06
2019-03-19T03:42:22.772Z,1008.07
2019-03-19T03:43:22.788Z,1008.04
2019-03-19T03:44:22.806Z,1008.04
2019-03-19T03:45:22.819Z,1008.08
2019-03-19T03:46:22.835Z,1008.09
2019-03-19T03:47:22.851Z,1008.08
2019-03-19T03:48:22.876Z,1008.15
2019-03-19T03:49:22.890Z,1008.12
2019-03-19T03:50:23.048Z,1008.14
2019-03-19T03:51:22.915Z,1008.16
2019-03-19T03:52:22.930Z,1008.2
2019-03-19T03:53:22.949Z,1008.25
2019-03-19T03:54:22.962Z,1008.27
2019-03-19T03:55:22.984Z,1008.25
2019-03-19T03:56:22.995Z,1008.27
2019-03-19T03:57:23.012Z,1008.28
2019-03-19T03:58:23.027Z,1008.31
2019-03-19T03:59:23.043Z,1008.3
2019-03-19T04:00:23.060Z,1008.3
2019-03-19T04:01:23.074Z,1008.3
2019-03-19T04:02:23.093Z,1008.31
2019-03-19T04:03:23.141Z,1008.32
2019-03-19T04:04:23.125Z,1008.33
2019-03-19T04:05:23.150Z,1008.38
2019-03-19T04:06:23.154Z,1008.36
2019-03-19T04:07:23.170Z,1008.39
2019-03-19T04:08:23.190Z,1008.34
2019-03-19T04:09:23.203Z,1008.39
2019-03-19T04:10:23.221Z,1008.41
2019-03-19T04:11:23.235Z,1008.42
2019-03-19T04:12:23.267Z,1008.46
2019-03-19T04:13:23.266Z,1008.46
2019-03-19T04:14:23.284Z,1008.45
2019-03-19T04:15:23.310Z,1008.44
2019-03-19T04:16:23.316Z,1008.42
2019-03-19T04:17:23.330Z,1008.41
2019-03-19T04:18:23.346Z,1008.41
2019-03-19T04:19:23.363Z,1008.42
2019-03-19T04:20:23.384Z,1008.36
2019-03-19T04:21:23.399Z,1008.39
2019-03-19T04:22:23.410Z,1008.38
2019-03-19T04:23:23.427Z,1008.36
2019-03-19T04:24:23.442Z,1008.41
2019-03-19T04:25:23.460Z,1008.44
2019-03-19T04:26:23.481Z,1008.43
2019-03-19T04:27:23.489Z,1008.38
2019-03-19T04:28:23.506Z,1008.38
2019-03-19T04:29:23.522Z,1008.39
2019-03-19T04:30:23.541Z,1008.39
2019-03-19T04:31:23.555Z,1008.38
2019-03-19T04:32:23.569Z,1008.38
2019-03-19T04:33:23.591Z,1008.42
2019-03-19T04:34:23.604Z,1008.41
2019-03-19T04:35:23.619Z,1008.46
2019-03-19T04:36:23.635Z,1008.44
2019-03-19T04:37:23.653Z,1008.46
2019-03-19T04:38:23.671Z,1008.48
2019-03-19T04:39:23.692Z,1008.48
2019-03-19T04:40:23.699Z,1008.51
2019-03-19T04:41:23.716Z,1008.51
2019-03-19T04:42:23.741Z,1008.53
2019-03-19T04:43:23.791Z,1008.51
2019-03-19T04:44:23.764Z,1008.52
2019-03-19T04:45:23.778Z,1008.54
2019-03-19T04:46:23.796Z,1008.48
2019-03-19T04:47:23.811Z,1008.45
2019-03-19T04:48:23.840Z,1008.5
2019-03-19T04:49:23.850Z,1008.52
2019-03-19T04:50:23.859Z,1008.52
2019-03-19T04:51:23.875Z,1008.52
2019-03-19T04:52:23.894Z,1008.5
2019-03-19T04:53:24.310Z,1008.55
2019-03-19T04:54:23.923Z,1008.57
2019-03-19T04:55:23.940Z,1008.55
2019-03-19T04:56:23.956Z,1008.57
2019-03-19T04:57:26.908Z,1008.55
2019-03-19T04:58:23.987Z,1008.57
2019-03-19T04:59:24.043Z,1008.58
2019-03-19T05:00:24.022Z,1008.56
2019-03-19T05:01:24.037Z,1008.6
2019-03-19T05:02:24.054Z,1008.62
2019-03-19T05:03:24.068Z,1008.61
2019-03-19T05:04:24.086Z,1008.61
2019-03-19T05:05:24.100Z,1008.64
2019-03-19T05:06:24.118Z,1008.56
2019-03-19T05:07:24.139Z,1008.55
2019-03-19T05:08:24.150Z,1008.58
2019-03-19T05:09:24.167Z,1008.61
2019-03-19T05:10:24.183Z,1008.58
2019-03-19T05:11:24.198Z,1008.59
2019-03-19T05:12:24.214Z,1008.59
2019-03-19T05:13:24.232Z,1008.62
2019-03-19T05:14:24.247Z,1008.63
2019-03-19T05:15:24.265Z,1008.63
2019-03-19T05:16:24.278Z,1008.69
2019-03-19T05:17:24.295Z,1008.69
2019-03-19T05:18:24.311Z,1008.73
2019-03-19T05:19:24.327Z,1008.74
2019-03-19T05:20:24.342Z,1008.77
2019-03-19T05:21:24.362Z,1008.74
2019-03-19T05:22:24.377Z,1008.75
2019-03-19T05:23:24.391Z,1008.74
2019-03-19T05:24:24.407Z,1008.69
2019-03-19T05:25:24.424Z,1008.7
2019-03-19T05:26:24.441Z,1008.68
2019-03-19T05:27:24.456Z,1008.71
2019-03-19T05:28:24.473Z,1008.75
2019-03-19T05:29:24.489Z,1008.72
2019-03-19T05:30:24.507Z,1008.73
2019-03-19T05:31:24.519Z,1008.74
2019-03-19T05:32:24.538Z,1008.76
2019-03-19T05:33:24.555Z,1008.75
2019-03-19T05:34:24.578Z,1008.78
2019-03-19T05:35:24.589Z,1008.77
2019-03-19T05:36:24.602Z,1008.77
2019-03-19T05:37:24.620Z,1008.82
2019-03-19T05:38:24.636Z,1008.8
2019-03-19T05:39:24.652Z,1008.86
2019-03-19T05:40:24.668Z,1008.88
2019-03-19T05:41:24.683Z,1008.88
2019-03-19T05:42:24.704Z,1008.93
2019-03-19T05:43:24.716Z,1008.96
2019-03-19T05:44:24.733Z,1008.99
2019-03-19T05:45:24.754Z,1009.03
2019-03-19T05:46:24.765Z,1009
2019-03-19T05:47:24.783Z,1008.98
2019-03-19T05:48:24.800Z,1009.03
2019-03-19T05:49:24.814Z,1009.05
2019-03-19T05:50:24.832Z,1009.01
2019-03-19T05:51:24.848Z,1009.05
2019-03-19T05:52:24.863Z,1009.03
2019-03-19T05:53:24.883Z,1009.06
2019-03-19T05:54:24.902Z,1009.03
2019-03-19T05:55:24.913Z,1009.02
2019-03-19T05:56:24.928Z,1009.05
2019-03-19T05:57:24.944Z,1009.04
2019-03-19T05:58:24.961Z,1009.09
2019-03-19T05:59:24.977Z,1009.1
2019-03-19T06:00:24.995Z,1009.1
2019-03-19T06:01:25.011Z,1009.13
2019-03-19T06:02:25.027Z,1009.12
2019-03-19T06:03:25.046Z,1009.11
2019-03-19T06:04:25.058Z,1009.13
2019-03-19T06:05:25.076Z,1009.12
2019-03-19T06:06:25.092Z,1009.16
2019-03-19T06:07:25.109Z,1009.13
2019-03-19T06:08:25.125Z,1009.13
2019-03-19T06:09:25.141Z,1009.14
2019-03-19T06:10:26.073Z,1009.17
2019-03-19T06:11:25.174Z,1009.17
2019-03-19T06:12:25.191Z,1009.22
2019-03-19T06:13:25.206Z,1009.2
2019-03-19T06:14:25.222Z,1009.25
2019-03-19T06:15:25.240Z,1009.25
2019-03-19T06:16:25.256Z,1009.29
2019-03-19T06:17:25.272Z,1009.3
2019-03-19T06:18:34.486Z,1009.32
2019-03-19T06:19:25.303Z,1009.32
2019-03-19T06:20:25.324Z,1009.36
2019-03-19T06:21:25.338Z,1009.34
2019-03-19T06:22:25.356Z,1009.32
2019-03-19T06:23:25.371Z,1009.34
2019-03-19T06:24:25.387Z,1009.35
2019-03-19T06:25:25.429Z,1009.37
2019-03-19T06:26:25.419Z,1009.35
2019-03-19T06:27:25.435Z,1009.34
2019-03-19T06:28:25.452Z,1009.38
2019-03-19T06:29:25.469Z,1009.38
2019-03-19T06:30:25.486Z,1009.44
2019-03-19T06:31:25.552Z,1009.45
2019-03-19T06:32:25.519Z,1009.48
2019-03-19T06:33:25.534Z,1009.52
2019-03-19T06:34:25.556Z,1009.53
2019-03-19T06:35:25.567Z,1009.54
2019-03-19T06:36:25.583Z,1009.58
2019-03-19T06:37:25.600Z,1009.56
2019-03-19T06:38:25.622Z,1009.58
2019-03-19T06:39:25.634Z,1009.59
2019-03-19T06:40:25.650Z,1009.63
2019-03-19T06:41:25.665Z,1009.64
2019-03-19T06:42:25.703Z,1009.69
2019-03-19T06:43:25.700Z,1009.68
2019-03-19T06:44:25.716Z,1009.72
2019-03-19T06:45:25.733Z,1009.71
2019-03-19T06:46:25.750Z,1009.74
2019-03-19T06:47:25.766Z,1009.72
2019-03-19T06:48:25.784Z,1009.71
2019-03-19T06:49:25.798Z,1009.75
2019-03-19T06:50:27.970Z,1009.77
2019-03-19T06:51:25.832Z,1009.77
2019-03-19T06:52:25.849Z,1009.82
2019-03-19T06:53:25.866Z,1009.82
2019-03-19T06:54:25.881Z,1009.87
2019-03-19T06:55:25.899Z,1009.85
2019-03-19T06:56:25.916Z,1009.94
2019-03-19T06:57:25.933Z,1009.93
2019-03-19T06:58:25.948Z,1009.98
2019-03-19T06:59:25.969Z,1009.94
2019-03-19T07:00:25.980Z,1009.96
2019-03-19T07:01:25.998Z,1009.97
2019-03-19T07:02:26.015Z,1009.94
2019-03-19T07:03:26.031Z,1009.94
2019-03-19T07:04:26.050Z,1009.92
2019-03-19T07:05:26.064Z,1009.99
2019-03-19T07:06:26.081Z,1009.95
2019-03-19T07:07:26.122Z,1009.99
2019-03-19T07:08:26.114Z,1010.02
2019-03-19T07:09:26.130Z,1010.06
2019-03-19T07:10:26.145Z,1010.07
2019-03-19T07:11:26.163Z,1010.08
2019-03-19T07:12:26.181Z,1010.07
2019-03-19T07:13:26.195Z,1010.15
2019-03-19T07:14:26.213Z,1010.13
2019-03-19T07:15:26.234Z,1010.18
2019-03-19T07:16:26.246Z,1010.17
2019-03-19T07:17:26.262Z,1010.19
2019-03-19T07:18:26.278Z,1010.23
2019-03-19T07:19:26.300Z,1010.24
2019-03-19T07:20:26.313Z,1010.28
2019-03-19T07:21:26.329Z,1010.26
2019-03-19T07:22:26.346Z,1010.27
2019-03-19T07:23:26.364Z,1010.29
2019-03-19T07:24:26.378Z,1010.26
2019-03-19T07:25:26.397Z,1010.31
2019-03-19T07:26:26.413Z,1010.29
2019-03-19T07:27:26.428Z,1010.3
2019-03-19T07:28:26.445Z,1010.38
2019-03-19T07:29:26.461Z,1010.4
2019-03-19T07:30:26.481Z,1010.38
2019-03-19T07:31:30.608Z,1010.4
2019-03-19T07:32:26.512Z,1010.4
2019-03-19T07:33:26.528Z,1010.36
2019-03-19T07:34:26.545Z,1010.37
2019-03-19T07:35:26.565Z,1010.35
2019-03-19T07:36:26.579Z,1010.34
2019-03-19T07:37:26.595Z,1010.33
2019-03-19T07:38:26.611Z,1010.36
2019-03-19T07:39:26.629Z,1010.31
2019-03-19T07:40:26.648Z,1010.33
2019-03-19T07:41:26.663Z,1010.29
2019-03-19T07:42:26.679Z,1010.3
2019-03-19T07:43:26.695Z,1010.29
2019-03-19T07:44:26.713Z,1010.32
2019-03-19T07:45:26.730Z,1010.36
2019-03-19T07:46:26.747Z,1010.4
2019-03-19T07:47:26.764Z,1010.45
2019-03-19T07:48:26.779Z,1010.45
2019-03-19T07:49:26.796Z,1010.46
2019-03-19T07:50:26.813Z,1010.5
2019-03-19T07:51:26.829Z,1010.52
2019-03-19T07:52:26.847Z,1010.52
2019-03-19T07:53:26.863Z,1010.52
2019-03-19T07:54:26.879Z,1010.54
2019-03-19T07:55:26.897Z,1010.54
2019-03-19T07:56:26.914Z,1010.59
2019-03-19T07:57:29.359Z,1010.57
2019-03-19T07:58:32.958Z,1010.58
2019-03-19T07:59:26.965Z,1010.56
2019-03-19T08:00:26.990Z,1010.55
2019-03-19T08:01:26.996Z,1010.58
2019-03-19T08:02:27.014Z,1010.61
2019-03-19T08:03:27.030Z,1010.63
2019-03-19T08:04:27.047Z,1010.65
2019-03-19T08:05:32.815Z,1010.7
2019-03-19T08:06:27.080Z,1010.71
2019-03-19T08:07:27.098Z,1010.7
2019-03-19T08:08:27.118Z,1010.75
2019-03-19T08:09:27.216Z,1010.76
2019-03-19T08:10:27.153Z,1010.77
2019-03-19T08:11:27.165Z,1010.79
2019-03-19T08:12:27.182Z,1010.8
2019-03-19T08:13:27.201Z,1010.77
2019-03-19T08:14:27.218Z,1010.83
2019-03-19T08:15:27.236Z,1010.78
2019-03-19T08:16:27.827Z,1010.79
2019-03-19T08:17:27.268Z,1010.81
2019-03-19T08:18:27.285Z,1010.86
2019-03-19T08:19:27.302Z,1010.86
2019-03-19T08:20:27.322Z,1010.88
2019-03-19T08:21:27.337Z,1010.88
2019-03-19T08:22:27.353Z,1010.89
2019-03-19T08:23:27.372Z,1010.91
2019-03-19T08:24:27.388Z,1010.93
2019-03-19T08:25:27.405Z,1010.94
2019-03-19T08:26:27.420Z,1010.98
2019-03-19T08:27:27.439Z,1010.95
2019-03-19T08:28:27.460Z,1011
2019-03-19T08:29:27.472Z,1011
2019-03-19T08:30:27.491Z,1011.04
2019-03-19T08:31:27.507Z,1011.02
2019-03-19T08:32:27.567Z,1011.04
2019-03-19T08:33:27.541Z,1011.06
2019-03-19T08:34:27.559Z,1011.04
2019-03-19T08:35:27.576Z,1011.08
2019-03-19T08:36:27.596Z,1011.08
2019-03-19T08:37:27.609Z,1011.08
2019-03-19T08:38:27.625Z,1011.09
2019-03-19T08:39:27.644Z,1011.09
2019-03-19T08:40:27.660Z,1011.07
2019-03-19T08:41:27.678Z,1011.05
2019-03-19T08:42:27.696Z,1011.04
2019-03-19T08:43:27.711Z,1011.02
2019-03-19T08:44:28.159Z,1011.05
2019-03-19T08:45:27.749Z,1011.06
2019-03-19T08:46:27.769Z,1011.05
2019-03-19T08:47:27.781Z,1011.16
2019-03-19T08:48:27.797Z,1011.12
2019-03-19T08:49:27.814Z,1011.15
2019-03-19T08:50:27.833Z,1011.21
2019-03-19T08:51:27.848Z,1011.18
2019-03-19T08:52:27.867Z,1011.18
2019-03-19T08:53:27.883Z,1011.2
2019-03-19T08:54:27.899Z,1011.16
2019-03-19T08:55:27.918Z,1011.17
2019-03-19T08:56:27.934Z,1011.15
2019-03-19T08:57:27.953Z,1011.1
2019-03-19T08:58:27.970Z,1011.12
2019-03-19T08:59:27.985Z,1011.09
2019-03-19T09:00:28.004Z,1011.1
2019-03-19T09:01:28.023Z,1011.12
2019-03-19T09:02:28.040Z,1011.11
2019-03-19T09:03:28.062Z,1011.13
2019-03-19T09:04:28.073Z,1011.13
2019-03-19T09:05:28.091Z,1011.18
2019-03-19T09:06:28.106Z,1011.15
2019-03-19T09:07:28.124Z,1011.17
2019-03-19T09:08:28.142Z,1011.17
2019-03-19T09:09:28.159Z,1011.12
2019-03-19T09:10:28.175Z,1011.16
2019-03-19T09:11:28.193Z,1011.18
2019-03-19T09:12:28.211Z,1011.17
2019-03-19T09:13:28.229Z,1011.15
2019-03-19T09:14:28.245Z,1011.16
2019-03-19T09:15:28.266Z,1011.14
2019-03-19T09:16:28.280Z,1011.12
2019-03-19T09:17:28.297Z,1011.17
2019-03-19T09:18:28.313Z,1011.15
2019-03-19T09:19:28.330Z,1011.1
2019-03-19T09:20:28.349Z,1011.13
2019-03-19T09:21:28.366Z,1011.09
2019-03-19T09:22:29.706Z,1011.15
2019-03-19T09:23:28.399Z,1011.09
2019-03-19T09:24:28.418Z,1011.12
2019-03-19T09:25:28.436Z,1011.12
2019-03-19T09:26:28.453Z,1011.17
2019-03-19T09:27:28.471Z,1011.09
2019-03-19T09:28:28.488Z,1011.16
2019-03-19T09:29:28.505Z,1011.19
2019-03-19T09:30:28.528Z,1011.17
2019-03-19T09:31:28.540Z,1011.18
2019-03-19T09:32:28.557Z,1011.17
2019-03-19T09:33:28.575Z,1011.18
2019-03-19T09:34:28.591Z,1011.24
2019-03-19T09:35:28.607Z,1011.26
2019-03-19T09:36:28.626Z,1011.25
2019-03-19T09:37:28.643Z,1011.28
2019-03-19T09:38:28.661Z,1011.25
2019-03-19T09:39:28.678Z,1011.31
2019-03-19T09:40:28.694Z,1011.31
2019-03-19T09:41:28.713Z,1011.32
2019-03-19T09:42:28.731Z,1011.3
2019-03-19T09:43:28.748Z,1011.29
2019-03-19T09:44:28.765Z,1011.29
2019-03-19T09:45:28.784Z,1011.28
2019-03-19T09:46:28.799Z,1011.24
2019-03-19T09:47:28.816Z,1011.3
2019-03-19T09:48:28.836Z,1011.28
2019-03-19T09:49:28.852Z,1011.26
2019-03-19T09:50:28.870Z,1011.28
2019-03-19T09:51:28.887Z,1011.32
2019-03-19T09:52:28.904Z,1011.29
2019-03-19T09:53:28.925Z,1011.32
2019-03-19T09:54:28.941Z,1011.34
2019-03-19T09:55:28.958Z,1011.34
2019-03-19T09:56:28.975Z,1011.32
2019-03-19T09:57:28.992Z,1011.33
2019-03-19T09:58:29.011Z,1011.36
2019-03-19T09:59:29.028Z,1011.36
2019-03-19T10:00:29.045Z,1011.34
2019-03-19T10:01:29.062Z,1011.37
2019-03-19T10:02:29.080Z,1011.4
2019-03-19T10:03:29.100Z,1011.34
2019-03-19T10:04:29.116Z,1011.36
2019-03-19T10:05:29.133Z,1011.31
2019-03-19T10:06:29.151Z,1011.29
2019-03-19T10:07:29.168Z,1011.27
2019-03-19T10:08:29.185Z,1011.28
2019-03-19T10:09:29.203Z,1011.3
2019-03-19T10:10:29.240Z,1011.24
2019-03-19T10:11:29.239Z,1011.26
2019-03-19T10:12:29.255Z,1011.24
2019-03-19T10:13:29.274Z,1011.29
2019-03-19T10:14:29.292Z,1011.29
2019-03-19T10:15:29.307Z,1011.34
2019-03-19T10:16:29.327Z,1011.31
2019-03-19T10:17:29.345Z,1011.25
2019-03-19T10:18:29.361Z,1011.22
2019-03-19T10:19:29.379Z,1011.23
2019-03-19T10:20:29.397Z,1011.22
2019-03-19T10:21:29.414Z,1011.21
2019-03-19T10:22:29.436Z,1011.2
2019-03-19T10:23:29.451Z,1011.16
2019-03-19T10:24:29.469Z,1011.17
2019-03-19T10:25:29.490Z,1011.17
2019-03-19T10:26:29.501Z,1011.16
2019-03-19T10:27:29.521Z,1011.2
2019-03-19T10:28:29.538Z,1011.18
2019-03-19T10:29:37.754Z,1011.21
2019-03-19T10:30:29.573Z,1011.22
2019-03-19T10:31:29.590Z,1011.25
2019-03-19T10:32:29.608Z,1011.26
2019-03-19T10:33:29.626Z,1011.22
2019-03-19T10:34:29.645Z,1011.27
2019-03-19T10:35:29.661Z,1011.21
2019-03-19T10:36:29.678Z,1011.24
2019-03-19T10:37:29.696Z,1011.25
2019-03-19T10:38:29.713Z,1011.25
2019-03-19T10:39:29.732Z,1011.24
2019-03-19T10:40:29.752Z,1011.22
2019-03-19T10:41:29.772Z,1011.17
2019-03-19T10:42:29.785Z,1011.17
2019-03-19T10:43:29.807Z,1011.23
2019-03-19T10:44:29.821Z,1011.21
2019-03-19T10:45:29.836Z,1011.24
2019-03-19T10:46:29.855Z,1011.28
2019-03-19T10:47:29.874Z,1011.25
2019-03-19T10:48:29.891Z,1011.26
2019-03-19T10:49:29.908Z,1011.28
2019-03-19T10:50:29.927Z,1011.29
2019-03-19T10:51:29.944Z,1011.3
2019-03-19T10:52:29.966Z,1011.31
2019-03-19T10:53:29.980Z,1011.4
2019-03-19T10:54:30.001Z,1011.42
2019-03-19T10:55:30.015Z,1011.43
2019-03-19T10:56:30.032Z,1011.42
2019-03-19T10:57:30.052Z,1011.42
2019-03-19T10:58:30.067Z,1011.41
2019-03-19T10:59:30.087Z,1011.39
2019-03-19T11:00:30.102Z,1011.41
2019-03-19T11:01:30.126Z,1011.42
2019-03-19T11:02:30.140Z,1011.37
2019-03-19T11:03:30.156Z,1011.38
2019-03-19T11:04:30.211Z,1011.34
2019-03-19T11:05:30.194Z,1011.33
2019-03-19T11:06:30.211Z,1011.33
2019-03-19T11:07:30.232Z,1011.33
2019-03-19T11:08:30.246Z,1011.39
2019-03-19T11:09:30.313Z,1011.36
2019-03-19T11:10:30.281Z,1011.39
2019-03-19T11:11:30.298Z,1011.38
2019-03-19T11:12:30.318Z,1011.47
2019-03-19T11:13:30.334Z,1011.46
2019-03-19T11:14:30.352Z,1011.45
2019-03-19T11:15:31.570Z,1011.5
2019-03-19T11:16:30.387Z,1011.5
2019-03-19T11:17:30.406Z,1011.5
2019-03-19T11:18:30.425Z,1011.5
2019-03-19T11:19:30.441Z,1011.5
2019-03-19T11:20:30.461Z,1011.51
2019-03-19T11:21:30.478Z,1011.57
2019-03-19T11:22:30.500Z,1011.54
2019-03-19T11:23:30.511Z,1011.53
2019-03-19T11:24:30.533Z,1011.46
2019-03-19T11:25:30.551Z,1011.49
2019-03-19T11:26:30.567Z,1011.47
2019-03-19T11:27:30.585Z,1011.5
2019-03-19T11:28:30.603Z,1011.48
2019-03-19T11:29:30.671Z,1011.52
2019-03-19T11:30:30.710Z,1011.52
2019-03-19T11:31:30.656Z,1011.56
2019-03-19T11:32:30.674Z,1011.56
2019-03-19T11:33:30.695Z,1011.59
2019-03-19T11:34:30.711Z,1011.66
2019-03-19T11:35:30.737Z,1011.67
2019-03-19T11:36:30.747Z,1011.69
2019-03-19T11:37:30.765Z,1011.7
2019-03-19T11:38:30.782Z,1011.71
2019-03-19T11:39:30.800Z,1011.7
2019-03-19T11:40:30.822Z,1011.65
2019-03-19T11:41:30.836Z,1011.7
2019-03-19T11:42:30.854Z,1011.7
2019-03-19T11:43:30.871Z,1011.67
2019-03-19T11:44:30.891Z,1011.69
2019-03-19T11:45:30.908Z,1011.68
2019-03-19T11:46:30.927Z,1011.63
2019-03-19T11:47:30.944Z,1011.65
2019-03-19T11:48:30.962Z,1011.63
2019-03-19T11:49:30.981Z,1011.63
2019-03-19T11:50:33.124Z,1011.68
2019-03-19T11:51:31.015Z,1011.67
2019-03-19T11:52:31.034Z,1011.67
2019-03-19T11:53:31.052Z,1011.68
2019-03-19T11:54:31.071Z,1011.67
2019-03-19T11:55:31.088Z,1011.68
2019-03-19T11:56:31.105Z,1011.67
2019-03-19T11:57:31.136Z,1011.7
2019-03-19T11:58:31.141Z,1011.64
2019-03-19T11:59:31.163Z,1011.64
2019-03-19T12:00:31.179Z,1011.64
2019-03-19T12:01:31.194Z,1011.66
2019-03-19T12:02:31.215Z,1011.65
2019-03-19T12:03:31.244Z,1011.63
2019-03-19T12:04:31.250Z,1011.6
2019-03-19T12:05:31.270Z,1011.61
2019-03-19T12:06:31.287Z,1011.64
2019-03-19T12:07:31.303Z,1011.64
2019-03-19T12:08:31.322Z,1011.61